Time;durP1;ratioP1;P1;durP2;ratioP2;P2;SDS_P1;SDS_P2;PMS_P1;PMS_P2;Temp;Humidity;BMP_temperature;BMP_pressure;BME280_temperature;BME280_humidity;BME280_pressure;Samples;Min_cycle;Max_cycle;Signal;HPM_P1;HPM_P2
2021/05/12 00:01:14;;;;;;;15.10;2.30;;;13.60;86.00;;;;;;4946543;28;20444;-90
2021/05/12 00:03:39;;;;;;;13.98;1.77;;;13.70;85.00;;;;;;4970196;28;20044;-88
2021/05/12 00:06:07;;;;;;;15.73;2.50;;;13.70;84.10;;;;;;4962791;28;20014;-89
2021/05/12 00:08:33;;;;;;;14.40;2.28;;;13.60;83.50;;;;;;4970013;28;20545;-89
2021/05/12 00:10:59;;;;;;;21.85;2.45;;;13.70;83.40;;;;;;4964279;28;20023;-89
2021/05/12 00:13:25;;;;;;;14.85;2.30;;;13.70;83.40;;;;;;4959158;28;20053;-88
2021/05/12 00:15:51;;;;;;;14.43;2.38;;;13.70;82.90;;;;;;4940598;28;20083;-89
2021/05/12 00:18:20;;;;;;;15.40;2.55;;;13.80;83.00;;;;;;4953966;28;20058;-89
2021/05/12 00:20:47;;;;;;;15.18;2.55;;;13.80;83.30;;;;;;4954805;28;20055;-88
2021/05/12 00:23:19;;;;;;;19.73;2.47;;;13.70;83.00;;;;;;4971761;28;20023;-89
2021/05/12 00:25:45;;;;;;;20.38;2.78;;;13.70;82.90;;;;;;4957128;28;20049;-88
2021/05/12 00:28:10;;;;;;;16.48;2.70;;;13.70;82.10;;;;;;4937865;28;20083;-88
2021/05/12 00:30:36;;;;;;;15.82;2.30;;;13.70;82.60;;;;;;4949564;28;20027;-89
2021/05/12 00:33:02;;;;;;;14.30;2.10;;;13.70;82.80;;;;;;4953506;28;20039;-90
2021/05/12 00:35:28;;;;;;;12.48;2.00;;;13.70;83.10;;;;;;4948110;28;20048;-89
2021/05/12 00:37:54;;;;;;;13.77;2.10;;;13.80;83.20;;;;;;4966428;28;20031;-90
2021/05/12 00:40:20;;;;;;;19.20;3.83;;;13.80;83.00;;;;;;4949190;28;20391;-91
2021/05/12 00:42:47;;;;;;;15.55;2.40;;;13.80;83.00;;;;;;4955370;28;20037;-88
2021/05/12 00:45:16;;;;;;;18.33;2.30;;;13.80;82.90;;;;;;4966182;28;20496;-89
2021/05/12 00:47:42;;;;;;;23.23;2.72;;;13.90;83.20;;;;;;4962499;28;20145;-93
2021/05/12 00:50:09;;;;;;;19.08;2.42;;;13.90;82.30;;;;;;4946885;28;20095;-88
2021/05/12 00:52:35;;;;;;;14.43;1.92;;;13.80;83.70;;;;;;4960415;28;20030;-90
2021/05/12 00:55:01;;;;;;;15.13;2.53;;;13.80;82.20;;;;;;4968552;28;20027;-89
2021/05/12 00:57:26;;;;;;;17.42;2.30;;;13.80;82.30;;;;;;4959873;28;20033;-89
2021/05/12 00:59:53;;;;;;;15.00;3.03;;;13.70;82.90;;;;;;4965448;28;20023;-89
2021/05/12 01:02:19;;;;;;;20.63;3.08;;;13.80;83.30;;;;;;4957156;28;20082;-88
2021/05/12 01:04:46;;;;;;;16.33;2.67;;;13.80;83.40;;;;;;4967522;28;20023;-89
2021/05/12 01:07:12;;;;;;;17.40;2.28;;;13.80;83.60;;;;;;4944017;28;20078;-89
2021/05/12 01:09:38;;;;;;;17.60;2.20;;;13.80;84.00;;;;;;4969662;28;20069;-88
2021/05/12 01:12:04;;;;;;;15.10;2.65;;;13.80;84.20;;;;;;4971403;28;20026;-89
2021/05/12 01:14:30;;;;;;;14.90;2.40;;;13.80;84.30;;;;;;4948594;28;20038;-89
2021/05/12 01:16:56;;;;;;;16.30;2.25;;;13.70;83.60;;;;;;4965708;28;20065;-88
2021/05/12 01:19:22;;;;;;;14.07;1.70;;;13.80;83.30;;;;;;4958592;28;20625;-88
2021/05/12 01:21:48;;;;;;;14.25;1.80;;;13.80;82.10;;;;;;4965138;28;20037;-90
2021/05/12 01:24:14;;;;;;;16.30;1.83;;;13.80;82.70;;;;;;4967534;28;20035;-88
2021/05/12 01:26:40;;;;;;;14.75;1.83;;;13.80;83.10;;;;;;4957591;28;20110;-88
2021/05/12 01:29:07;;;;;;;16.65;2.85;;;13.80;81.90;;;;;;4967422;28;20639;-89
2021/05/12 01:31:39;;;;;;;16.02;2.20;;;13.80;80.00;;;;;;4953278;28;20031;-89
2021/05/12 01:34:06;;;;;;;18.27;2.47;;;13.80;80.00;;;;;;4965066;28;20586;-89
2021/05/12 01:36:34;;;;;;;18.88;2.78;;;13.80;79.70;;;;;;4957991;28;20050;-89
2021/05/12 01:39:00;;;;;;;12.10;2.03;;;13.80;80.50;;;;;;4955619;28;20034;-88
2021/05/12 01:41:27;;;;;;;13.82;1.85;;;13.80;79.70;;;;;;4961392;28;20481;-89
2021/05/12 01:43:54;;;;;;;14.00;1.90;;;13.80;80.50;;;;;;4950980;28;20502;-92
2021/05/12 01:46:20;;;;;;;18.73;2.10;;;13.80;81.10;;;;;;4961756;28;20027;-89
2021/05/12 01:48:46;;;;;;;11.52;1.88;;;13.80;81.10;;;;;;4964900;28;20463;-89
2021/05/12 01:51:12;;;;;;;13.13;2.03;;;13.80;81.70;;;;;;4960717;28;20215;-89
2021/05/12 01:53:39;;;;;;;15.70;2.90;;;13.70;81.60;;;;;;4952203;28;20030;-88
2021/05/12 01:56:05;;;;;;;10.68;1.83;;;13.70;82.00;;;;;;4970873;28;20074;-89
2021/05/12 01:58:31;;;;;;;18.52;2.08;;;13.80;82.40;;;;;;4973948;28;20052;-89
2021/05/12 02:00:57;;;;;;;14.05;2.03;;;13.80;83.00;;;;;;4949352;28;20027;-89
2021/05/12 02:03:24;;;;;;;11.93;1.70;;;13.80;83.50;;;;;;4965660;28;20487;-90
2021/05/12 02:05:51;;;;;;;16.45;2.10;;;13.90;83.70;;;;;;4946615;28;20480;-89
2021/05/12 02:08:22;;;;;;;12.30;2.15;;;13.90;84.10;;;;;;4955954;28;20128;-89
2021/05/12 02:10:54;;;;;;;15.38;2.40;;;13.80;83.50;;;;;;4972857;28;20499;-90
2021/05/12 02:13:22;;;;;;;14.60;2.13;;;13.80;84.00;;;;;;4973644;28;20121;-89
2021/05/12 02:15:48;;;;;;;14.80;2.28;;;13.80;83.40;;;;;;4965160;28;20024;-89
2021/05/12 02:18:13;;;;;;;10.38;1.75;;;13.80;83.70;;;;;;4966400;28;20033;-89
2021/05/12 02:20:41;;;;;;;12.52;1.90;;;13.80;83.60;;;;;;4965180;28;20102;-89
2021/05/12 02:23:12;;;;;;;12.27;1.85;;;13.80;82.50;;;;;;4978280;28;20023;-88
2021/05/12 02:25:39;;;;;;;14.93;1.83;;;13.80;82.90;;;;;;4957404;28;20033;-88
2021/05/12 02:28:05;;;;;;;15.38;2.03;;;13.80;83.10;;;;;;4974734;28;20055;-89
2021/05/12 02:30:32;;;;;;;17.63;2.88;;;13.70;83.40;;;;;;4962127;28;20060;-89
2021/05/12 02:32:57;;;;;;;17.38;2.33;;;13.80;84.00;;;;;;4974297;28;20514;-89
2021/05/12 02:35:24;;;;;;;18.60;2.47;;;13.80;84.40;;;;;;4961886;28;20114;-90
2021/05/12 02:37:51;;;;;;;17.98;2.25;;;13.80;84.10;;;;;;4973365;28;20010;-90
2021/05/12 02:40:18;;;;;;;18.60;3.00;;;13.80;84.80;;;;;;4970627;28;20093;-88
2021/05/12 02:42:44;;;;;;;23.23;3.15;;;13.80;85.00;;;;;;4971487;28;20077;-89
2021/05/12 02:45:10;;;;;;;15.98;2.45;;;13.80;85.20;;;;;;4960439;28;20038;-89
2021/05/12 02:47:37;;;;;;;15.38;2.53;;;13.80;85.00;;;;;;4969730;28;20349;-89
2021/05/12 02:50:08;;;;;;;21.17;2.40;;;13.80;85.30;;;;;;4965088;28;20031;-89
2021/05/12 02:52:33;;;;;;;17.17;2.95;;;13.80;85.80;;;;;;4968893;28;20031;-89
2021/05/12 02:54:59;;;;;;;21.27;2.25;;;13.80;85.50;;;;;;4968438;28;20025;-89
2021/05/12 02:57:25;;;;;;;22.38;2.72;;;13.70;86.20;;;;;;4967755;28;20022;-89
2021/05/12 02:59:52;;;;;;;18.30;2.55;;;13.80;86.00;;;;;;4968248;28;20023;-88
2021/05/12 03:02:18;;;;;;;16.48;2.65;;;13.80;85.90;;;;;;4966376;28;20090;-88
2021/05/12 03:04:43;;;;;;;17.95;2.83;;;13.80;86.20;;;;;;4968368;28;20098;-90
2021/05/12 03:07:09;;;;;;;18.88;3.13;;;13.80;86.20;;;;;;4966493;28;20408;-89
2021/05/12 03:09:35;;;;;;;12.95;2.63;;;13.80;86.40;;;;;;4967421;28;20113;-89
2021/05/12 03:12:00;;;;;;;18.58;2.80;;;13.80;86.80;;;;;;4956512;28;20484;-89
2021/05/12 03:14:26;;;;;;;21.33;3.13;;;13.80;86.60;;;;;;4950476;28;20056;-88
2021/05/12 03:16:52;;;;;;;13.00;1.95;;;13.80;87.50;;;;;;4965673;28;20025;-88
2021/05/12 03:19:18;;;;;;;20.45;2.83;;;13.70;88.10;;;;;;4972077;28;20031;-89
2021/05/12 03:21:43;;;;;;;7.93;1.42;;;13.70;88.90;;;;;;4951727;28;20406;-90
2021/05/12 03:24:09;;;;;;;14.57;2.05;;;13.70;88.90;;;;;;4969169;28;20031;-88
2021/05/12 03:26:36;;;;;;;15.82;2.97;;;13.70;88.60;;;;;;4957022;28;20257;-89
2021/05/12 03:29:04;;;;;;;10.38;1.80;;;13.60;88.60;;;;;;4957848;28;20039;-88
2021/05/12 03:31:30;;;;;;;11.70;1.55;;;13.50;88.60;;;;;;4948845;28;20027;-90
2021/05/12 03:33:57;;;;;;;13.27;2.03;;;13.50;88.90;;;;;;4969240;28;20018;-89
2021/05/12 03:36:24;;;;;;;15.93;2.55;;;13.40;89.50;;;;;;4954874;28;20045;-89
2021/05/12 03:38:51;;;;;;;9.73;2.30;;;13.40;89.80;;;;;;4957484;28;20027;-89
2021/05/12 03:41:16;;;;;;;15.98;2.40;;;13.40;89.30;;;;;;4961666;28;20019;-89
2021/05/12 03:43:42;;;;;;;17.95;2.85;;;13.30;89.10;;;;;;4970214;28;20031;-95
2021/05/12 03:46:08;;;;;;;14.90;2.78;;;13.30;89.10;;;;;;4945324;28;20292;-89
2021/05/12 03:48:34;;;;;;;15.18;2.30;;;13.30;89.60;;;;;;4971561;28;20043;-89
2021/05/12 03:51:00;;;;;;;14.85;2.55;;;13.30;90.00;;;;;;4960557;28;20558;-89
2021/05/12 03:53:26;;;;;;;12.32;2.50;;;13.30;90.10;;;;;;4954966;28;20029;-89
2021/05/12 03:55:52;;;;;;;14.45;2.15;;;13.20;90.30;;;;;;4952441;28;20063;-89
2021/05/12 03:58:18;;;;;;;12.77;2.20;;;13.20;90.90;;;;;;4972500;28;20027;-93
2021/05/12 04:00:45;;;;;;;13.50;1.92;;;13.30;90.60;;;;;;4956415;28;20031;-88
2021/05/12 04:03:12;;;;;;;13.35;2.45;;;13.30;90.40;;;;;;4959077;28;20106;-89
2021/05/12 04:05:37;;;;;;;11.40;2.88;;;13.30;90.40;;;;;;4961787;28;20051;-90
2021/05/12 04:08:03;;;;;;;13.70;2.40;;;13.30;90.80;;;;;;4953937;28;20508;-91
2021/05/12 04:10:29;;;;;;;17.75;3.25;;;13.30;90.70;;;;;;4968070;28;20031;-94
2021/05/12 04:12:55;;;;;;;17.98;2.67;;;13.30;91.00;;;;;;4971672;28;20034;-89
2021/05/12 04:15:21;;;;;;;16.83;3.00;;;13.20;91.20;;;;;;4972224;28;20058;-90
2021/05/12 04:17:48;;;;;;;15.88;2.95;;;13.30;91.40;;;;;;4972939;28;20023;-88
2021/05/12 04:20:20;;;;;;;18.20;2.97;;;13.20;91.30;;;;;;4972697;28;20510;-90
2021/05/12 04:22:48;;;;;;;14.77;3.03;;;13.20;91.90;;;;;;4973882;28;20047;-89
2021/05/12 04:25:19;;;;;;;20.73;2.65;;;13.20;92.00;;;;;;4973672;28;20027;-89
2021/05/12 04:27:46;;;;;;;15.10;2.70;;;13.30;92.60;;;;;;4946681;28;20047;-88
2021/05/12 04:30:13;;;;;;;17.85;2.72;;;13.20;92.30;;;;;;4968232;28;20039;-89
2021/05/12 04:32:42;;;;;;;19.00;2.58;;;13.20;92.60;;;;;;4963277;28;20483;-89
2021/05/12 04:35:10;;;;;;;22.63;3.42;;;13.20;92.70;;;;;;4941080;28;20037;-89
2021/05/12 04:37:35;;;;;;;18.38;3.40;;;13.10;93.00;;;;;;4957999;28;20093;-88
2021/05/12 04:40:02;;;;;;;15.13;2.85;;;13.00;93.00;;;;;;4959168;28;20476;-88
2021/05/12 04:42:27;;;;;;;23.88;2.75;;;13.00;93.40;;;;;;4969511;28;20530;-88
2021/05/12 04:44:53;;;;;;;19.75;2.83;;;13.10;93.70;;;;;;4969018;28;20031;-88
2021/05/12 04:47:20;;;;;;;19.80;3.33;;;13.10;93.90;;;;;;4970328;28;20026;-87
2021/05/12 04:49:46;;;;;;;16.23;2.90;;;13.00;94.00;;;;;;4962683;28;20464;-88
2021/05/12 04:52:13;;;;;;;12.52;2.78;;;13.00;93.90;;;;;;4958235;28;20658;-88
2021/05/12 04:54:39;;;;;;;13.20;2.75;;;13.10;93.80;;;;;;4952988;28;20033;-89
2021/05/12 04:57:05;;;;;;;13.30;3.28;;;13.10;93.80;;;;;;4951005;28;20102;-88
2021/05/12 04:59:30;;;;;;;13.18;2.47;;;13.10;94.20;;;;;;4964244;28;20078;-88
2021/05/12 05:02:00;;;;;;;22.38;2.92;;;13.10;93.60;;;;;;4950475;28;20027;-87
2021/05/12 05:04:26;;;;;;;24.20;3.85;;;13.20;94.10;;;;;;4964140;28;20036;-88
2021/05/12 05:06:52;;;;;;;21.77;3.35;;;13.20;94.10;;;;;;4959917;28;20027;-88
2021/05/12 05:09:18;;;;;;;20.55;3.78;;;13.20;94.30;;;;;;4964804;28;20404;-87
2021/05/12 05:11:43;;;;;;;18.48;3.70;;;13.30;93.80;;;;;;4965833;28;20035;-88
2021/05/12 05:14:09;;;;;;;17.55;3.47;;;13.30;94.30;;;;;;4965547;28;20063;-88
2021/05/12 05:16:36;;;;;;;17.10;3.10;;;13.20;94.40;;;;;;4953135;28;20023;-88
2021/05/12 05:19:01;;;;;;;22.67;3.75;;;13.20;94.60;;;;;;4950316;28;20212;-88
2021/05/12 05:21:27;;;;;;;17.58;3.60;;;13.20;95.40;;;;;;4945071;28;20615;-88
2021/05/12 05:23:54;;;;;;;16.95;3.03;;;13.20;95.00;;;;;;4967533;28;20031;-94
2021/05/12 05:26:20;;;;;;;14.48;2.55;;;13.20;94.80;;;;;;4962593;28;20023;-89
2021/05/12 05:28:46;;;;;;;16.20;2.72;;;13.10;94.70;;;;;;4954778;28;20527;-90
2021/05/12 05:31:11;;;;;;;15.65;3.10;;;13.10;94.80;;;;;;4939869;28;20026;-89
2021/05/12 05:33:37;;;;;;;17.67;2.67;;;13.10;95.30;;;;;;4973685;28;20035;-89
2021/05/12 05:36:03;;;;;;;19.25;2.97;;;13.20;95.00;;;;;;4964885;28;20558;-89
2021/05/12 05:38:29;;;;;;;13.82;3.97;;;13.20;95.10;;;;;;4973579;28;20399;-89
2021/05/12 05:40:55;;;;;;;18.35;2.97;;;13.20;95.20;;;;;;4973461;28;20030;-89
2021/05/12 05:43:20;;;;;;;23.85;3.40;;;13.10;95.40;;;;;;4974223;28;20015;-89
2021/05/12 05:45:46;;;;;;;14.82;3.15;;;13.10;95.60;;;;;;4966513;28;20039;-89
2021/05/12 05:48:12;;;;;;;18.00;3.65;;;13.10;95.50;;;;;;4972592;28;20038;-89
2021/05/12 05:50:38;;;;;;;21.48;4.50;;;13.00;95.30;;;;;;4950030;29;20448;-88
2021/05/12 05:53:03;;;;;;;19.45;4.07;;;12.90;95.70;;;;;;4970307;28;20027;-89
2021/05/12 05:55:29;;;;;;;17.50;3.72;;;12.90;95.30;;;;;;4967214;28;20082;-93
2021/05/12 05:57:55;;;;;;;19.65;3.63;;;12.80;95.60;;;;;;4969778;28;20031;-89
2021/05/12 06:00:22;;;;;;;19.52;4.50;;;12.80;96.10;;;;;;4968973;28;20027;-89
2021/05/12 06:02:48;;;;;;;12.93;3.13;;;12.80;96.40;;;;;;4950020;28;20114;-88
2021/05/12 06:05:14;;;;;;;16.23;3.22;;;12.90;96.10;;;;;;4969450;28;20133;-89
2021/05/12 06:07:40;;;;;;;22.60;6.20;;;12.90;95.60;;;;;;4965788;28;20027;-89
2021/05/12 06:10:07;;;;;;;20.73;6.05;;;12.80;95.90;;;;;;4949402;28;20041;-89
2021/05/12 06:12:34;;;;;;;22.75;4.63;;;12.90;96.30;;;;;;4964263;28;20612;-89
2021/05/12 06:15:01;;;;;;;22.00;3.88;;;12.90;96.40;;;;;;4967292;28;20086;-88
2021/05/12 06:17:27;;;;;;;22.63;4.55;;;12.90;96.20;;;;;;4963429;28;20507;-89
2021/05/12 06:19:54;;;;;;;16.60;3.33;;;12.80;95.60;;;;;;4952632;28;20031;-89
2021/05/12 06:22:20;;;;;;;21.38;4.78;;;12.90;96.10;;;;;;4962427;28;20098;-89
2021/05/12 06:24:45;;;;;;;15.63;4.50;;;12.80;95.30;;;;;;4952766;28;20119;-88
2021/05/12 06:27:11;;;;;;;16.40;4.32;;;12.80;96.10;;;;;;4958171;28;20030;-90
2021/05/12 06:29:38;;;;;;;17.80;3.33;;;12.70;96.20;;;;;;4949737;28;20054;-90
2021/05/12 06:32:07;;;;;;;14.70;2.90;;;12.80;95.90;;;;;;4958642;28;20110;-89
2021/05/12 06:34:34;;;;;;;18.42;3.00;;;12.90;96.20;;;;;;4965109;28;20159;-88
2021/05/12 06:37:01;;;;;;;17.48;4.18;;;12.90;95.80;;;;;;4955192;28;20035;-89
2021/05/12 06:39:27;;;;;;;14.85;4.22;;;13.00;95.90;;;;;;4966332;28;20028;-90
2021/05/12 06:41:53;;;;;;;17.15;3.22;;;13.00;95.60;;;;;;4967257;28;20373;-88
2021/05/12 06:44:20;;;;;;;14.55;3.47;;;13.10;96.00;;;;;;4970897;28;20542;-89
2021/05/12 06:46:46;;;;;;;19.00;3.53;;;13.10;96.10;;;;;;4973101;28;20023;-89
2021/05/12 06:49:12;;;;;;;12.32;3.20;;;13.10;95.90;;;;;;4971119;28;20126;-88
2021/05/12 06:51:38;;;;;;;18.42;3.80;;;13.30;96.20;;;;;;4963026;28;20038;-89
2021/05/12 06:54:03;;;;;;;15.25;3.25;;;13.40;95.90;;;;;;4952172;28;20420;-89
2021/05/12 06:56:29;;;;;;;13.52;3.40;;;13.50;95.50;;;;;;4962147;28;20018;-89
2021/05/12 06:58:55;;;;;;;13.98;3.13;;;13.70;95.00;;;;;;4970068;28;20034;-88
2021/05/12 07:01:20;;;;;;;14.75;3.20;;;13.70;94.90;;;;;;4960521;28;20498;-88
2021/05/12 07:03:47;;;;;;;17.15;3.95;;;13.70;94.50;;;;;;4971096;28;20028;-88
2021/05/12 07:06:13;;;;;;;13.02;2.60;;;13.70;94.40;;;;;;4960680;28;20226;-88
2021/05/12 07:08:39;;;;;;;19.60;3.22;;;13.80;93.90;;;;;;4953758;28;20203;-88
2021/05/12 07:11:05;;;;;;;13.02;2.70;;;13.80;93.60;;;;;;4967952;28;20491;-88
2021/05/12 07:13:31;;;;;;;16.50;4.00;;;13.50;93.20;;;;;;4969764;28;20023;-87
2021/05/12 07:15:57;;;;;;;16.17;3.08;;;13.60;93.80;;;;;;4966110;28;20388;-93
2021/05/12 07:18:23;;;;;;;20.98;3.97;;;13.40;93.70;;;;;;4961333;28;20034;-92
2021/05/12 07:20:53;;;;;;;24.73;4.00;;;13.50;93.10;;;;;;4956971;28;20062;-92
2021/05/12 07:23:21;;;;;;;14.48;3.75;;;13.50;93.20;;;;;;4950256;28;20035;-93
2021/05/12 07:25:56;;;;;;;13.55;3.00;;;13.50;93.60;;;;;;4967622;28;20602;-93
2021/05/12 07:28:23;;;;;;;13.07;3.03;;;13.50;93.40;;;;;;4952725;28;20043;-94
2021/05/12 07:30:49;;;;;;;18.83;3.55;;;13.60;93.40;;;;;;4950049;28;20034;-91
2021/05/12 07:33:18;;;;;;;14.55;2.63;;;13.70;93.50;;;;;;4956572;28;20014;-93
2021/05/12 07:35:44;;;;;;;15.02;3.13;;;13.90;92.50;;;;;;4946406;28;20079;-93
2021/05/12 07:38:10;;;;;;;13.05;3.13;;;14.00;92.50;;;;;;4952822;28;20525;-90
2021/05/12 07:40:36;;;;;;;14.77;2.95;;;14.20;92.20;;;;;;4948077;28;20027;-91
2021/05/12 07:43:07;;;;;;;12.45;2.67;;;14.20;91.60;;;;;;4949663;28;20499;-92
2021/05/12 07:45:35;;;;;;;14.35;3.13;;;14.40;92.30;;;;;;4952045;28;20038;-93
2021/05/12 07:48:01;;;;;;;18.60;3.75;;;14.30;91.50;;;;;;4971545;28;20391;-90
2021/05/12 07:50:27;;;;;;;18.77;3.38;;;14.30;91.60;;;;;;4968572;28;20029;-90
2021/05/12 07:52:52;;;;;;;16.15;3.30;;;14.40;91.50;;;;;;4954830;28;20031;-91
2021/05/12 07:55:18;;;;;;;21.48;4.25;;;14.40;92.30;;;;;;4951615;28;20038;-92
2021/05/12 07:57:44;;;;;;;17.83;3.42;;;14.50;91.10;;;;;;4957654;28;20026;-91
2021/05/12 08:00:10;;;;;;;18.98;6.28;;;14.50;91.60;;;;;;4967215;28;20302;-90
2021/05/12 08:02:36;;;;;;;53.95;17.52;;;14.60;91.20;;;;;;4951422;28;20121;-92
2021/05/12 08:05:02;;;;;;;16.67;3.60;;;14.80;90.60;;;;;;4967622;28;20050;-93
2021/05/12 08:07:28;;;;;;;12.43;3.03;;;14.90;90.60;;;;;;4973576;28;20102;-93
2021/05/12 08:09:54;;;;;;;14.32;2.40;;;14.90;90.20;;;;;;4971711;28;20519;-90
2021/05/12 08:12:20;;;;;;;13.45;2.80;;;14.90;89.20;;;;;;4956194;28;20061;-88
2021/05/12 08:14:45;;;;;;;10.82;2.95;;;14.90;88.40;;;;;;4967389;28;20121;-88
2021/05/12 08:17:11;;;;;;;9.38;2.17;;;15.00;86.30;;;;;;4965909;28;20130;-92
2021/05/12 08:19:37;;;;;;;10.80;2.85;;;15.30;85.50;;;;;;4951754;28;20038;-92
2021/05/12 08:22:07;;;;;;;11.93;2.38;;;15.50;81.70;;;;;;4956694;28;20027;-93
2021/05/12 08:24:33;;;;;;;12.32;1.77;;;15.50;82.90;;;;;;4950945;28;20492;-91
2021/05/12 08:27:03;;;;;;;9.93;2.50;;;15.50;81.90;;;;;;4953095;28;20055;-92
2021/05/12 08:29:30;;;;;;;9.77;2.20;;;15.60;84.00;;;;;;4945928;28;20078;-93
2021/05/12 08:32:04;;;;;;;8.85;2.17;;;15.30;80.10;;;;;;4941641;28;20027;-92
2021/05/12 08:34:33;;;;;;;14.23;2.50;;;15.10;79.30;;;;;;4945746;28;20031;-93
2021/05/12 08:37:02;;;;;;;10.02;1.73;;;14.80;81.70;;;;;;4948714;28;20070;-91
2021/05/12 08:39:30;;;;;;;11.68;2.60;;;14.90;82.90;;;;;;4967458;28;20058;-91
2021/05/12 08:41:58;;;;;;;8.77;2.17;;;14.90;82.40;;;;;;4948395;28;20073;-93
2021/05/12 08:44:25;;;;;;;7.95;1.98;;;14.90;80.40;;;;;;4951951;28;20073;-90
2021/05/12 08:46:51;;;;;;;12.10;2.13;;;15.00;81.90;;;;;;4955665;28;20066;-91
2021/05/12 08:49:18;;;;;;;14.02;2.47;;;14.90;80.40;;;;;;4954687;28;20058;-92
2021/05/12 08:51:45;;;;;;;8.88;2.33;;;14.90;81.80;;;;;;4953358;28;20027;-93
2021/05/12 08:54:12;;;;;;;13.10;2.67;;;14.90;82.50;;;;;;4976427;28;20038;-90
2021/05/12 08:56:38;;;;;;;10.90;2.20;;;14.90;83.40;;;;;;4974759;28;20025;-91
2021/05/12 08:59:04;;;;;;;14.70;2.35;;;14.90;82.60;;;;;;4956938;28;20035;-91
2021/05/12 09:01:30;;;;;;;10.95;2.42;;;15.00;81.50;;;;;;4959874;28;20011;-91
2021/05/12 09:03:56;;;;;;;14.02;2.40;;;15.10;82.90;;;;;;4967327;28;20114;-93
2021/05/12 09:06:22;;;;;;;11.23;2.28;;;15.40;83.50;;;;;;4959745;28;20101;-92
2021/05/12 09:08:51;;;;;;;12.57;2.72;;;15.50;81.10;;;;;;4967404;28;20121;-91
2021/05/12 09:11:17;;;;;;;8.50;1.80;;;15.60;81.30;;;;;;4958656;28;20027;-93
2021/05/12 09:13:49;;;;;;;7.28;2.00;;;15.60;80.00;;;;;;4970089;28;20275;-92
2021/05/12 09:16:22;;;;;;;8.40;2.05;;;15.70;79.30;;;;;;4948351;28;20027;-93
2021/05/12 09:18:59;;;;;;;10.20;2.22;;;15.80;82.60;;;;;;4952224;28;20460;-90
2021/05/12 09:21:43;;;;;;;11.68;2.30;;;15.70;79.30;;;;;;4962349;28;20028;-81
2021/05/12 09:24:24;;;;;;;11.18;2.63;;;15.40;80.50;;;;;;4966235;28;20165;-84
2021/05/12 09:26:51;;;;;;;9.52;2.17;;;15.40;80.20;;;;;;4962850;28;20019;-82
2021/05/12 09:29:28;;;;;;;9.27;2.60;;;15.30;81.40;;;;;;4966929;28;20142;-83
2021/05/12 09:32:04;;;;;;;8.23;1.77;;;15.30;83.50;;;;;;4953849;28;20026;-84
2021/05/12 09:34:51;;;;;;;8.95;1.67;;;15.30;78.70;;;;;;4963620;28;20023;-83
2021/05/12 09:37:24;;;;;;;7.97;2.13;;;15.30;80.20;;;;;;4966937;28;20484;-77
2021/05/12 09:39:50;;;;;;;9.18;2.00;;;15.40;79.30;;;;;;4964700;28;20026;-84
2021/05/12 09:42:21;;;;;;;9.23;1.50;;;15.60;80.00;;;;;;4965557;28;20031;-83
2021/05/12 09:44:47;;;;;;;6.25;1.65;;;15.90;77.80;;;;;;4961406;28;20392;-83
2021/05/12 09:47:28;;;;;;;14.05;2.63;;;16.00;78.50;;;;;;4966344;28;20041;-84
2021/05/12 09:49:55;;;;;;;9.77;2.08;;;16.20;79.00;;;;;;4964676;28;20479;-81
2021/05/12 09:52:28;;;;;;;7.55;1.90;;;16.30;79.30;;;;;;4965549;28;20026;-83
2021/05/12 09:55:01;;;;;;;7.07;1.60;;;16.50;78.10;;;;;;4964255;28;20046;-82
2021/05/12 09:57:27;;;;;;;5.32;1.70;;;16.60;76.30;;;;;;4964608;28;20407;-84
2021/05/12 09:59:53;;;;;;;7.63;1.95;;;16.70;77.60;;;;;;4946914;28;20101;-83
2021/05/12 10:02:19;;;;;;;9.85;1.90;;;16.60;76.80;;;;;;4964446;28;20480;-83
2021/05/12 10:04:47;;;;;;;9.10;1.58;;;16.60;78.70;;;;;;4964479;28;20031;-82
2021/05/12 10:07:24;;;;;;;8.65;1.67;;;16.40;76.30;;;;;;4962984;28;20512;-82
2021/05/12 10:09:52;;;;;;;6.43;1.60;;;16.30;80.10;;;;;;4964303;28;20034;-82
2021/05/12 10:12:25;;;;;;;9.10;1.48;;;16.40;79.60;;;;;;4962358;28;20018;-81
2021/05/12 10:14:56;;;;;;;9.55;1.80;;;16.50;79.30;;;;;;4957157;28;20042;-82
2021/05/12 10:17:24;;;;;;;6.97;1.77;;;16.40;79.10;;;;;;4965206;28;20023;-82
2021/05/12 10:19:50;;;;;;;7.07;1.75;;;16.20;78.60;;;;;;4967998;28;20138;-82
2021/05/12 10:22:18;;;;;;;11.00;2.55;;;16.40;80.50;;;;;;4963884;28;20023;-82
2021/05/12 10:24:45;;;;;;;7.82;1.73;;;16.50;78.80;;;;;;4956285;28;20278;-81
2021/05/12 10:27:15;;;;;;;11.13;1.98;;;16.60;79.80;;;;;;4962847;28;20388;-81
2021/05/12 10:29:52;;;;;;;11.82;2.42;;;16.80;78.90;;;;;;4966696;28;20058;-81
2021/05/12 10:32:18;;;;;;;12.07;2.70;;;16.80;78.20;;;;;;4960257;28;20023;-82
2021/05/12 10:34:46;;;;;;;10.23;2.22;;;16.70;79.40;;;;;;4964543;28;20247;-82
2021/05/12 10:37:21;;;;;;;8.60;2.08;;;16.60;79.80;;;;;;4968652;28;20298;-82
2021/05/12 10:40:04;;;;;;;13.15;2.80;;;16.60;79.00;;;;;;4965797;28;20026;-84
2021/05/12 10:42:47;;;;;;;10.25;2.35;;;16.70;79.80;;;;;;4964851;28;20059;-82
2021/05/12 10:45:43;;;;;;;7.93;2.47;;;16.80;80.20;;;;;;4967304;28;20384;-82
2021/05/12 10:48:39;;;;;;;7.22;2.10;;;16.80;77.40;;;;;;4959547;28;20051;-82
2021/05/12 10:51:31;;;;;;;13.13;2.65;;;16.90;80.60;;;;;;4962598;28;20023;-84
2021/05/12 10:54:02;;;;;;;9.13;2.10;;;17.20;78.50;;;;;;4962582;28;20284;-82
2021/05/12 10:56:39;;;;;;;9.80;2.20;;;17.20;78.00;;;;;;4963224;28;20022;-83
2021/05/12 10:59:11;;;;;;;9.23;2.42;;;17.30;78.80;;;;;;4969097;28;20023;-83
2021/05/12 11:01:43;;;;;;;11.43;2.03;;;17.40;79.00;;;;;;4963790;28;20114;-83
2021/05/12 11:04:13;;;;;;;9.63;1.75;;;17.70;76.40;;;;;;4968477;28;20043;-84
2021/05/12 11:06:39;;;;;;;5.72;1.48;;;17.90;74.80;;;;;;4964071;28;20600;-83
2021/05/12 11:09:10;;;;;;;5.93;1.83;;;17.90;76.30;;;;;;4968937;28;20357;-83
2021/05/12 11:11:38;;;;;;;6.65;1.83;;;17.90;77.20;;;;;;4957958;28;20081;-82
2021/05/12 11:14:27;;;;;;;5.88;1.75;;;18.10;76.10;;;;;;4969102;28;20038;-82
2021/05/12 11:17:02;;;;;;;9.50;2.38;;;18.00;76.70;;;;;;4964416;28;20243;-83
2021/05/12 11:19:49;;;;;;;14.00;2.50;;;17.80;80.50;;;;;;4957085;28;20649;-83
2021/05/12 11:33:31;;;;;;;8.93;2.42;;;18.00;76.70;;;;;;4966810;28;20178;-82
2021/05/12 11:36:05;;;;;;;14.32;3.65;;;17.80;77.40;;;;;;4960387;28;20023;-82
2021/05/12 11:38:31;;;;;;;12.23;3.78;;;17.60;77.90;;;;;;4959551;28;20251;-83
2021/05/12 11:40:58;;;;;;;10.60;2.33;;;17.70;79.70;;;;;;4961614;28;20666;-84
2021/05/12 11:43:50;;;;;;;11.07;2.90;;;17.90;77.00;;;;;;4960861;28;20028;-84
2021/05/12 11:46:18;;;;;;;12.82;2.65;;;17.90;75.20;;;;;;4969863;28;20392;-84
2021/05/12 11:48:49;;;;;;;12.25;2.83;;;18.10;76.60;;;;;;4968711;28;20047;-85
2021/05/12 11:51:18;;;;;;;10.60;2.40;;;18.00;76.80;;;;;;4961448;28;20091;-84
2021/05/12 11:53:45;;;;;;;12.30;2.53;;;18.10;77.00;;;;;;4946778;28;20179;-85
2021/05/12 11:56:12;;;;;;;10.55;2.17;;;18.10;76.10;;;;;;4967186;28;20043;-85
2021/05/12 11:58:40;;;;;;;13.52;2.72;;;18.40;76.70;;;;;;4970268;28;20027;-83
2021/05/12 12:01:11;;;;;;;11.70;2.58;;;18.80;72.80;;;;;;4962522;28;20421;-85
2021/05/12 12:03:43;;;;;;;10.68;2.30;;;18.70;73.80;;;;;;4953126;28;20117;-84
2021/05/12 12:06:12;;;;;;;12.60;3.05;;;18.60;74.10;;;;;;4961838;28;20031;-84
2021/05/12 12:08:37;;;;;;;9.75;2.35;;;18.70;75.10;;;;;;4970475;28;20077;-84
2021/05/12 12:11:06;;;;;;;12.90;2.55;;;19.00;73.50;;;;;;4942811;28;20054;-84
2021/05/12 12:13:31;;;;;;;10.80;2.28;;;19.50;73.70;;;;;;4970026;28;20085;-84
2021/05/12 12:15:57;;;;;;;13.35;3.28;;;19.10;74.10;;;;;;4939141;28;20428;-85
2021/05/12 12:18:42;;;;;;;18.65;2.58;;;18.90;76.00;;;;;;4971247;28;20046;-85
2021/05/12 12:21:10;;;;;;;14.65;2.72;;;18.50;75.60;;;;;;4962514;28;20054;-85
2021/05/12 12:23:38;;;;;;;15.63;2.75;;;18.70;76.00;;;;;;4970239;28;20034;-85
2021/05/12 12:28:43;;;;;;;8.55;2.00;;;19.60;72.20;;;;;;4956633;28;20078;-85
2021/05/12 12:31:13;;;;;;;10.20;2.05;;;20.20;71.00;;;;;;4960221;28;20019;-84
2021/05/12 12:33:39;;;;;;;9.00;2.20;;;20.00;68.00;;;;;;4969290;28;20160;-85
2021/05/12 12:36:07;;;;;;;11.38;2.20;;;19.90;70.10;;;;;;4961094;28;20022;-85
2021/05/12 12:38:35;;;;;;;12.13;2.20;;;19.30;71.00;;;;;;4967502;28;20034;-85
2021/05/12 12:41:01;;;;;;;14.27;2.25;;;19.10;70.30;;;;;;4962674;28;20155;-85
2021/05/12 12:43:38;;;;;;;10.30;2.35;;;18.90;68.70;;;;;;4966351;28;20041;-85
2021/05/12 12:46:04;;;;;;;9.43;1.85;;;18.40;70.90;;;;;;4964813;28;20467;-85
2021/05/12 12:48:29;;;;;;;12.15;1.67;;;17.30;73.10;;;;;;4965974;28;20074;-85
2021/05/12 12:50:55;;;;;;;11.82;1.30;;;16.40;78.30;;;;;;4963025;28;20511;-85
2021/05/12 12:53:21;;;;;;;20.52;2.40;;;15.60;83.50;;;;;;4964846;28;20027;-83
2021/05/12 12:55:47;;;;;;;11.05;1.30;;;15.10;90.30;;;;;;4965538;28;20027;-89